createdAt,value
2023-04-01T08:01:07.550Z,36.94
2023-04-01T08:02:07.596Z,35.96
2023-04-01T08:03:07.730Z,35.84
2023-04-01T08:04:07.789Z,35.74
2023-04-01T08:05:07.701Z,35.69
2023-04-01T08:06:07.742Z,35.64
2023-04-01T08:07:07.793Z,35.60
2023-04-01T08:08:07.785Z,35.55
2023-04-01T08:09:07.785Z,35.56
2023-04-01T08:10:07.805Z,35.51
2023-04-01T08:11:07.816Z,35.52
2023-04-01T08:12:07.889Z,35.47
2023-04-01T08:13:07.957Z,35.46
2023-04-01T08:14:07.993Z,35.46
2023-04-01T08:15:08.031Z,35.44
2023-04-01T08:16:08.098Z,35.42
2023-04-01T08:17:08.142Z,35.41
2023-04-01T08:18:08.232Z,35.41
2023-04-01T08:19:08.227Z,35.39
2023-04-01T08:20:08.270Z,35.37
2023-04-01T08:21:08.270Z,35.36
2023-04-01T08:22:08.330Z,35.37
2023-04-01T08:23:08.333Z,35.33
2023-04-01T08:24:08.388Z,35.35
2023-04-01T08:25:08.449Z,35.32
2023-04-01T08:26:08.438Z,35.31
2023-04-01T08:27:08.469Z,35.32
2023-04-01T08:28:08.521Z,35.34
2023-04-01T08:29:08.508Z,35.33
2023-04-01T08:30:10.386Z,35.32
2023-04-01T08:31:08.585Z,35.32
2023-04-01T08:32:08.691Z,35.29
2023-04-01T08:33:08.678Z,35.30
2023-04-01T08:34:08.692Z,35.30
2023-04-01T08:35:08.752Z,35.28
2023-04-01T08:36:08.803Z,35.30
2023-04-01T08:37:08.783Z,35.31
2023-04-01T08:38:08.816Z,35.32
2023-04-01T08:39:08.820Z,35.32
2023-04-01T08:40:08.838Z,35.32
2023-04-01T08:41:08.916Z,35.32
2023-04-01T08:42:08.925Z,35.28
2023-04-01T08:43:08.946Z,35.29
2023-04-01T08:44:08.963Z,35.29
2023-04-01T08:45:08.982Z,35.32
2023-04-01T08:46:09.135Z,35.29
2023-04-01T08:47:09.125Z,35.29
2023-04-01T08:48:09.122Z,35.28
2023-04-01T08:49:09.140Z,35.30
2023-04-01T08:50:09.162Z,35.31
2023-04-01T08:51:09.155Z,35.28
2023-04-01T08:52:09.202Z,35.30
2023-04-01T08:53:09.225Z,35.31
2023-04-01T08:54:09.224Z,35.29
2023-04-01T08:55:09.262Z,35.29
2023-04-01T08:56:09.307Z,35.30
2023-04-01T08:57:09.336Z,35.28
2023-04-01T08:58:09.330Z,35.29
2023-04-01T08:59:09.409Z,35.27
2023-04-01T09:00:09.392Z,35.28
2023-04-01T09:01:09.392Z,35.28
2023-04-01T09:02:09.480Z,35.28
2023-04-01T09:03:09.605Z,35.26
2023-04-01T09:04:09.530Z,35.27
2023-04-01T09:05:09.490Z,35.27
2023-04-01T09:06:09.509Z,35.26
2023-04-01T09:07:11.541Z,35.24
2023-04-01T09:08:09.545Z,35.28
2023-04-01T09:09:09.537Z,35.28
2023-04-01T09:10:09.558Z,35.26
2023-04-01T09:11:09.542Z,35.28
2023-04-01T09:12:09.594Z,35.25
2023-04-01T09:13:09.509Z,35.26
2023-04-01T09:14:09.515Z,35.27
2023-04-01T09:15:09.495Z,35.26
2023-04-01T09:16:09.511Z,35.25
2023-04-01T09:17:09.522Z,35.24
2023-04-01T09:18:09.628Z,35.24
2023-04-01T09:19:10.035Z,35.23
2023-04-01T09:20:09.466Z,35.23
2023-04-01T09:21:09.501Z,35.24
2023-04-01T09:22:09.453Z,35.25
2023-04-01T09:23:09.436Z,35.24
2023-04-01T09:24:09.456Z,35.25
2023-04-01T09:25:09.432Z,35.24
2023-04-01T09:26:09.454Z,35.26
2023-04-01T09:27:09.441Z,35.24
2023-04-01T09:28:09.391Z,35.24
2023-04-01T09:29:09.423Z,35.26
2023-04-01T09:30:09.398Z,35.25
2023-04-01T09:31:09.443Z,35.23
2023-04-01T09:32:09.451Z,35.24
2023-04-01T09:33:09.378Z,35.23
2023-04-01T09:34:09.362Z,35.25
2023-04-01T09:35:09.395Z,35.25
2023-04-01T09:36:09.520Z,35.24
2023-04-01T09:37:09.356Z,35.21
2023-04-01T09:38:09.363Z,35.21
2023-04-01T09:39:09.358Z,35.21
2023-04-01T09:40:09.340Z,35.22
2023-04-01T09:41:09.338Z,35.24
2023-04-01T09:42:09.309Z,35.22
2023-04-01T09:43:09.310Z,35.19
2023-04-01T09:44:09.307Z,35.21
2023-04-01T09:45:09.339Z,35.20
2023-04-01T09:46:09.332Z,35.21
2023-04-01T09:47:09.280Z,35.20
2023-04-01T09:48:09.302Z,35.20
2023-04-01T09:49:09.249Z,35.18
2023-04-01T09:50:09.259Z,35.18
2023-04-01T09:51:09.254Z,35.16
2023-04-01T09:52:09.292Z,35.16
2023-04-01T09:53:09.253Z,35.13
2023-04-01T09:54:09.937Z,35.13
2023-04-01T09:55:09.222Z,35.12
2023-04-01T09:56:09.231Z,35.11
2023-04-01T09:57:09.256Z,35.12
2023-04-01T09:58:09.236Z,35.08
2023-04-01T09:59:09.203Z,35.11
2023-04-01T10:00:09.204Z,35.12
2023-04-01T10:01:09.192Z,35.12
2023-04-01T10:02:09.273Z,35.11
2023-04-01T10:03:09.205Z,35.10
2023-04-01T10:04:09.153Z,35.09
2023-04-01T10:05:09.225Z,35.12
2023-04-01T10:06:09.262Z,35.09
2023-04-01T10:07:09.138Z,35.10
2023-04-01T10:08:09.168Z,35.12
2023-04-01T10:09:09.182Z,35.09
2023-04-01T10:10:09.139Z,35.07
2023-04-01T10:11:09.125Z,35.09
2023-04-01T10:12:09.103Z,35.09
2023-04-01T10:13:09.129Z,35.06
2023-04-01T10:14:09.135Z,35.07
2023-04-01T10:15:09.136Z,35.06
2023-04-01T10:16:09.190Z,35.07
2023-04-01T10:17:09.190Z,35.06
2023-04-01T10:18:09.227Z,35.05
2023-04-01T10:19:09.207Z,35.04
2023-04-01T10:20:09.293Z,35.04
2023-04-01T10:21:09.287Z,35.05
2023-04-01T10:22:09.328Z,35.05
2023-04-01T10:23:09.353Z,35.07
2023-04-01T10:24:09.406Z,35.04
2023-04-01T10:25:09.352Z,35.03
2023-04-01T10:26:09.450Z,35.02
2023-04-01T10:27:09.388Z,35.01
2023-04-01T10:28:09.479Z,35.02
2023-04-01T10:29:09.435Z,35.02
2023-04-01T10:30:09.502Z,35.04
2023-04-01T10:31:09.450Z,35.01
2023-04-01T10:32:09.745Z,34.99
2023-04-01T10:33:09.536Z,35.01
2023-04-01T10:34:09.571Z,35.01
2023-04-01T10:35:09.523Z,35.01
2023-04-01T10:36:09.647Z,34.97
2023-04-01T10:37:09.593Z,34.97
2023-04-01T10:38:09.609Z,34.98
2023-04-01T10:39:09.662Z,34.97
2023-04-01T10:40:09.591Z,34.97
2023-04-01T10:41:10.474Z,34.94
2023-04-01T10:42:09.617Z,34.95
2023-04-01T10:43:09.615Z,34.96
2023-04-01T10:44:09.687Z,34.92
2023-04-01T10:45:09.696Z,34.95
2023-04-01T10:46:09.703Z,34.92
2023-04-01T10:47:09.731Z,34.93
2023-04-01T10:48:09.770Z,34.92
2023-04-01T10:49:09.725Z,34.90
2023-04-01T10:50:09.720Z,34.93
2023-04-01T10:51:09.746Z,34.90
2023-04-01T10:52:09.772Z,34.91
2023-04-01T10:53:09.797Z,34.92
2023-04-01T10:54:09.767Z,34.88
2023-04-01T10:55:09.794Z,34.90
2023-04-01T10:56:09.817Z,34.88
2023-04-01T10:57:09.862Z,34.87
2023-04-01T10:58:09.840Z,34.90
2023-04-01T10:59:09.874Z,34.89
2023-04-01T11:00:09.844Z,34.87
2023-04-01T11:01:09.969Z,34.87
2023-04-01T11:02:11.949Z,34.88
2023-04-01T11:03:09.982Z,34.87
2023-04-01T11:04:09.912Z,34.82
2023-04-01T11:05:09.892Z,34.82
2023-04-01T11:06:09.935Z,34.81
2023-04-01T11:07:09.966Z,34.80
2023-04-01T11:08:09.997Z,34.77
2023-04-01T11:09:09.949Z,34.75
2023-04-01T11:10:09.948Z,34.77
2023-04-01T11:11:09.983Z,34.77
2023-04-01T11:12:10.030Z,34.75
2023-04-01T11:13:09.989Z,34.75
2023-04-01T11:14:10.034Z,34.76
2023-04-01T11:15:10.078Z,34.72
2023-04-01T11:16:10.133Z,34.70
2023-04-01T11:17:10.066Z,34.73
2023-04-01T11:18:10.085Z,34.69
2023-04-01T11:19:10.053Z,34.70
2023-04-01T11:20:10.076Z,34.66
2023-04-01T11:21:10.078Z,34.68
2023-04-01T11:22:10.098Z,34.67
2023-04-01T11:23:10.112Z,34.65
2023-04-01T11:24:10.078Z,34.65
2023-04-01T11:25:10.062Z,34.63
2023-04-01T11:26:10.113Z,34.62
2023-04-01T11:27:10.193Z,34.62
2023-04-01T11:28:10.085Z,34.60
2023-04-01T11:29:10.118Z,34.59
2023-04-01T11:30:10.115Z,34.60
2023-04-01T11:31:10.173Z,34.61
2023-04-01T11:32:10.135Z,34.59
2023-04-01T11:33:10.201Z,34.61
2023-04-01T11:34:10.156Z,34.60
2023-04-01T11:35:10.176Z,34.57
2023-04-01T11:36:10.156Z,34.58
2023-04-01T11:37:10.169Z,34.56
2023-04-01T11:38:10.147Z,34.56
2023-04-01T11:39:10.167Z,34.58
2023-04-01T11:40:10.172Z,34.56
2023-04-01T11:41:10.251Z,34.56
2023-04-01T11:42:10.211Z,34.56
2023-04-01T11:43:11.665Z,34.55
2023-04-01T11:44:10.227Z,34.54
2023-04-01T11:45:10.244Z,34.56
2023-04-01T11:46:10.261Z,34.52
2023-04-01T11:47:10.250Z,34.52
2023-04-01T11:48:10.234Z,34.53
2023-04-01T11:49:10.183Z,34.50
2023-04-01T11:50:10.165Z,34.51
2023-04-01T11:51:10.197Z,34.51
2023-04-01T11:52:10.173Z,34.50
2023-04-01T11:53:10.196Z,34.53
2023-04-01T11:54:10.160Z,34.53
2023-04-01T11:55:10.199Z,34.53
2023-04-01T11:56:10.159Z,34.51
2023-04-01T11:57:10.199Z,34.52
2023-04-01T11:58:10.136Z,34.53
2023-04-01T11:59:10.142Z,34.51
2023-04-01T12:00:10.165Z,34.52
2023-04-01T12:01:10.097Z,34.49
2023-04-01T12:02:10.161Z,34.52
2023-04-01T12:03:10.217Z,34.50
2023-04-01T12:04:10.264Z,34.52
2023-04-01T12:05:10.067Z,34.52
2023-04-01T12:06:10.143Z,34.51
2023-04-01T12:07:10.103Z,34.51
2023-04-01T12:08:10.100Z,34.51
2023-04-01T12:09:10.136Z,34.51
2023-04-01T12:10:10.159Z,34.51
2023-04-01T12:11:10.192Z,34.50
2023-04-01T12:12:10.227Z,34.51
2023-04-01T12:13:10.242Z,34.51
2023-04-01T12:14:10.247Z,34.51
2023-04-01T12:15:10.295Z,34.50
2023-04-01T12:16:10.349Z,34.50
2023-04-01T12:17:10.346Z,34.45
2023-04-01T12:18:10.438Z,34.47
2023-04-01T12:19:10.445Z,34.48
2023-04-01T12:20:10.562Z,34.50
2023-04-01T12:21:10.503Z,34.46
2023-04-01T12:22:10.534Z,34.46
2023-04-01T12:23:10.598Z,34.48
2023-04-01T12:24:10.611Z,34.48
2023-04-01T12:25:10.656Z,34.49
2023-04-01T12:26:10.769Z,34.49
2023-04-01T12:27:10.778Z,34.46
2023-04-01T12:28:10.815Z,34.49
2023-04-01T12:29:10.846Z,34.50
2023-04-01T12:30:10.926Z,34.50
2023-04-01T12:31:10.972Z,34.49
2023-04-01T12:32:11.087Z,34.48
2023-04-01T12:33:11.098Z,34.46
2023-04-01T12:34:11.105Z,34.50
2023-04-01T12:35:11.169Z,34.48
2023-04-01T12:36:11.279Z,34.47
2023-04-01T12:37:11.276Z,34.48
2023-04-01T12:38:11.332Z,34.49
2023-04-01T12:39:11.356Z,34.49
2023-04-01T12:40:11.368Z,34.51
2023-04-01T12:41:11.521Z,34.52
2023-04-01T12:42:11.545Z,34.54
2023-04-01T12:43:11.543Z,34.51
2023-04-01T12:44:11.600Z,34.52
2023-04-01T12:45:11.637Z,34.52
2023-04-01T12:46:11.668Z,34.54
2023-04-01T12:47:11.727Z,34.54
2023-04-01T12:48:11.833Z,34.49
2023-04-01T12:49:11.819Z,34.48
2023-04-01T12:50:11.862Z,34.50
2023-04-01T12:51:11.891Z,34.49
2023-04-01T12:52:11.964Z,34.54
2023-04-01T12:53:12.000Z,34.52
2023-04-01T12:54:12.036Z,34.52
2023-04-01T12:55:12.122Z,34.51
2023-04-01T12:56:12.182Z,34.52
2023-04-01T12:57:12.288Z,34.53
2023-04-01T12:58:12.265Z,34.53
2023-04-01T12:59:12.317Z,34.50
2023-04-01T13:00:12.375Z,34.51
